sensor_id;sensor_type;location;lat;lon;timestamp;pressure;altitude;pressure_sealevel;temperature;humidity
10510;BME280;5303;53.266;10.410;2023-12-14T00:01:11;100636.19;;;3.00;100.00
10510;BME280;5303;53.266;10.410;2023-12-14T00:03:36;100643.34;;;3.07;100.00
10510;BME280;5303;53.266;10.410;2023-12-14T00:06:02;100658.00;;;3.04;100.00
10510;BME280;5303;53.266;10.410;2023-12-14T00:08:27;100650.22;;;3.05;100.00
10510;BME280;5303;53.266;10.410;2023-12-14T00:10:52;100659.75;;;3.05;100.00
10510;BME280;5303;53.266;10.410;2023-12-14T00:13:17;100665.97;;;3.10;100.00
10510;BME280;5303;53.266;10.410;2023-12-14T00:15:43;100663.38;;;3.10;100.00
10510;BME280;5303;53.266;10.410;2023-12-14T00:18:09;100683.97;;;3.01;100.00
10510;BME280;5303;53.266;10.410;2023-12-14T00:20:35;100673.53;;;2.99;100.00
10510;BME280;5303;53.266;10.410;2023-12-14T00:23:01;100675.25;;;2.99;100.00
10510;BME280;5303;53.266;10.410;2023-12-14T00:25:26;100682.19;;;2.98;100.00
10510;BME280;5303;53.266;10.410;2023-12-14T00:27:52;100681.22;;;2.95;100.00
10510;BME280;5303;53.266;10.410;2023-12-14T00:30:17;100693.34;;;2.94;100.00
10510;BME280;5303;53.266;10.410;2023-12-14T00:32:42;100694.22;;;2.95;100.00
10510;BME280;5303;53.266;10.410;2023-12-14T00:35:07;100701.88;;;2.87;100.00
10510;BME280;5303;53.266;10.410;2023-12-14T00:37:33;100698.53;;;2.93;100.00
10510;BME280;5303;53.266;10.410;2023-12-14T00:39:58;100705.38;;;2.87;100.00
10510;BME280;5303;53.266;10.410;2023-12-14T00:42:23;100718.28;;;2.84;100.00
10510;BME280;5303;53.266;10.410;2023-12-14T00:44:48;100710.59;;;2.89;100.00
10510;BME280;5303;53.266;10.410;2023-12-14T00:47:14;100707.22;;;2.93;100.00
10510;BME280;5303;53.266;10.410;2023-12-14T00:49:39;100706.53;;;2.99;100.00
10510;BME280;5303;53.266;10.410;2023-12-14T00:52:04;100713.41;;;2.97;100.00
10510;BME280;5303;53.266;10.410;2023-12-14T00:54:30;100726.53;;;3.00;100.00
10510;BME280;5303;53.266;10.410;2023-12-14T00:56:56;100723.97;;;3.03;100.00
10510;BME280;5303;53.266;10.410;2023-12-14T00:59:21;100729.19;;;3.03;100.00
10510;BME280;5303;53.266;10.410;2023-12-14T01:01:46;100736.94;;;3.00;100.00
10510;BME280;5303;53.266;10.410;2023-12-14T01:04:12;100749.34;;;3.08;100.00
10510;BME280;5303;53.266;10.410;2023-12-14T01:06:37;100747.59;;;3.09;100.00
10510;BME280;5303;53.266;10.410;2023-12-14T01:09:02;100757.47;;;3.21;100.00
10510;BME280;5303;53.266;10.410;2023-12-14T01:11:27;100755.56;;;3.15;100.00
10510;BME280;5303;53.266;10.410;2023-12-14T01:13:53;100750.38;;;3.16;100.00
10510;BME280;5303;53.266;10.410;2023-12-14T01:16:18;100758.78;;;3.05;100.00
10510;BME280;5303;53.266;10.410;2023-12-14T01:18:43;100764.22;;;3.14;100.00
10510;BME280;5303;53.266;10.410;2023-12-14T01:21:09;100769.53;;;3.17;100.00
10510;BME280;5303;53.266;10.410;2023-12-14T01:23:34;100776.34;;;3.12;100.00
10510;BME280;5303;53.266;10.410;2023-12-14T01:25:59;100771.13;;;3.12;100.00
10510;BME280;5303;53.266;10.410;2023-12-14T01:28:24;100785.00;;;3.11;100.00
10510;BME280;5303;53.266;10.410;2023-12-14T01:30:50;100785.00;;;3.11;100.00
10510;BME280;5303;53.266;10.410;2023-12-14T01:33:15;100782.59;;;3.17;100.00
10510;BME280;5303;53.266;10.410;2023-12-14T01:35:40;100785.72;;;3.05;100.00
10510;BME280;5303;53.266;10.410;2023-12-14T01:38:05;100795.25;;;3.05;100.00
10510;BME280;5303;53.266;10.410;2023-12-14T01:40:31;100792.75;;;3.08;100.00
10510;BME280;5303;53.266;10.410;2023-12-14T01:43:07;100799.78;;;3.10;100.00
10510;BME280;5303;53.266;10.410;2023-12-14T01:45:33;100799.78;;;3.10;100.00
10510;BME280;5303;53.266;10.410;2023-12-14T01:47:58;100796.44;;;3.16;100.00
10510;BME280;5303;53.266;10.410;2023-12-14T01:50:23;100818.03;;;3.12;100.00
10510;BME280;5303;53.266;10.410;2023-12-14T01:52:49;100814.78;;;3.19;100.00
10510;BME280;5303;53.266;10.410;2023-12-14T01:55:14;100809.31;;;3.10;100.00
10510;BME280;5303;53.266;10.410;2023-12-14T01:57:39;100811.16;;;3.14;100.00
10510;BME280;5303;53.266;10.410;2023-12-14T02:00:05;100812.03;;;3.14;100.00
10510;BME280;5303;53.266;10.410;2023-12-14T02:02:30;100818.97;;;3.14;100.00
10510;BME280;5303;53.266;10.410;2023-12-14T02:04:56;100826.72;;;3.11;100.00
10510;BME280;5303;53.266;10.410;2023-12-14T02:07:21;100827.84;;;3.21;100.00
10510;BME280;5303;53.266;10.410;2023-12-14T02:09:46;100823.09;;;3.06;100.00
10510;BME280;5303;53.266;10.410;2023-12-14T02:12:12;100825.75;;;3.07;100.00
10510;BME280;5303;53.266;10.410;2023-12-14T02:14:37;100835.44;;;3.13;100.00
10510;BME280;5303;53.266;10.410;2023-12-14T02:17:02;100831.94;;;3.11;100.00
10510;BME280;5303;53.266;10.410;2023-12-14T02:19:28;100836.22;;;3.09;100.00
10510;BME280;5303;53.266;10.410;2023-12-14T02:21:53;100831.84;;;3.08;100.00
10510;BME280;5303;53.266;10.410;2023-12-14T02:24:18;100840.59;;;3.10;100.00
10510;BME280;5303;53.266;10.410;2023-12-14T02:26:43;100845.00;;;3.12;100.00
10510;BME280;5303;53.266;10.410;2023-12-14T02:29:09;100835.44;;;3.13;100.00
10510;BME280;5303;53.266;10.410;2023-12-14T02:31:34;100846.69;;;3.10;100.00
10510;BME280;5303;53.266;10.410;2023-12-14T02:33:59;100840.66;;;3.13;100.00
10510;BME280;5303;53.266;10.410;2023-12-14T02:36:25;100846.13;;;3.22;100.00
10510;BME280;5303;53.266;10.410;2023-12-14T02:38:50;100839.06;;;3.18;100.00
10510;BME280;5303;53.266;10.410;2023-12-14T02:41:15;100854.72;;;3.18;100.00
10510;BME280;5303;53.266;10.410;2023-12-14T02:43:40;100855.66;;;3.22;100.00
10510;BME280;5303;53.266;10.410;2023-12-14T02:46:06;100857.44;;;3.23;100.00
10510;BME280;5303;53.266;10.410;2023-12-14T02:48:31;100854.03;;;3.25;100.00
10510;BME280;5303;53.266;10.410;2023-12-14T02:50:56;100853.09;;;3.23;100.00
10510;BME280;5303;53.266;10.410;2023-12-14T02:53:22;100853.06;;;3.22;100.00
10510;BME280;5303;53.266;10.410;2023-12-14T02:55:47;100859.16;;;3.22;100.00
10510;BME280;5303;53.266;10.410;2023-12-14T02:58:12;100861.78;;;3.22;100.00
10510;BME280;5303;53.266;10.410;2023-12-14T03:00:38;100862.44;;;3.15;100.00
10510;BME280;5303;53.266;10.410;2023-12-14T03:03:03;100871.31;;;3.22;100.00
10510;BME280;5303;53.266;10.410;2023-12-14T03:05:28;100858.16;;;3.17;100.00
10510;BME280;5303;53.266;10.410;2023-12-14T03:07:54;100869.50;;;3.19;100.00
10510;BME280;5303;53.266;10.410;2023-12-14T03:10:19;100873.22;;;3.27;100.00
10510;BME280;5303;53.266;10.410;2023-12-14T03:12:44;100874.72;;;3.19;100.00
10510;BME280;5303;53.266;10.410;2023-12-14T03:15:10;100882.94;;;3.34;100.00
10510;BME280;5303;53.266;10.410;2023-12-14T03:17:35;100880.31;;;3.33;100.00
10510;BME280;5303;53.266;10.410;2023-12-14T03:20:01;100881.97;;;3.29;100.00
10510;BME280;5303;53.266;10.410;2023-12-14T03:22:26;100884.38;;;3.23;100.00
10510;BME280;5303;53.266;10.410;2023-12-14T03:24:51;100880.94;;;3.24;100.00
10510;BME280;5303;53.266;10.410;2023-12-14T03:27:16;100882.69;;;3.25;100.00
10510;BME280;5303;53.266;10.410;2023-12-14T03:29:42;100887.84;;;3.22;100.00
10510;BME280;5303;53.266;10.410;2023-12-14T03:32:07;100884.47;;;3.26;100.00
10510;BME280;5303;53.266;10.410;2023-12-14T03:34:32;100892.28;;;3.26;100.00
10510;BME280;5303;53.266;10.410;2023-12-14T03:36:58;100897.41;;;3.23;100.00
10510;BME280;5303;53.266;10.410;2023-12-14T03:39:23;100909.53;;;3.21;100.00
10510;BME280;5303;53.266;10.410;2023-12-14T03:41:48;100905.97;;;3.17;100.00
10510;BME280;5303;53.266;10.410;2023-12-14T03:44:14;100913.81;;;3.19;100.00
10510;BME280;5303;53.266;10.410;2023-12-14T03:46:39;100919.81;;;3.16;100.00
10510;BME280;5303;53.266;10.410;2023-12-14T03:49:04;100926.63;;;3.11;100.00
10510;BME280;5303;53.266;10.410;2023-12-14T03:51:30;100927.84;;;3.24;100.00
10510;BME280;5303;53.266;10.410;2023-12-14T03:53:55;100931.03;;;3.14;100.00
10510;BME280;5303;53.266;10.410;2023-12-14T03:56:21;100936.53;;;3.23;100.00
10510;BME280;5303;53.266;10.410;2023-12-14T03:58:46;100945.19;;;3.22;100.00
10510;BME280;5303;53.266;10.410;2023-12-14T04:01:19;100951.06;;;3.15;100.00
10510;BME280;5303;53.266;10.410;2023-12-14T04:03:45;100954.50;;;3.14;100.00
10510;BME280;5303;53.266;10.410;2023-12-14T04:06:11;100958.16;;;3.19;100.00
10510;BME280;5303;53.266;10.410;2023-12-14T04:08:37;100965.03;;;3.17;100.00
10510;BME280;5303;53.266;10.410;2023-12-14T04:11:02;100967.84;;;3.25;100.00
10510;BME280;5303;53.266;10.410;2023-12-14T04:13:27;100961.66;;;3.21;100.00
10510;BME280;5303;53.266;10.410;2023-12-14T04:15:53;100978.19;;;3.22;100.00
10510;BME280;5303;53.266;10.410;2023-12-14T04:18:18;100987.59;;;3.16;100.00
10510;BME280;5303;53.266;10.410;2023-12-14T04:20:43;100989.50;;;3.22;100.00
10510;BME280;5303;53.266;10.410;2023-12-14T04:23:08;100993.72;;;3.17;100.00
10510;BME280;5303;53.266;10.410;2023-12-14T04:25:34;100992.78;;;3.16;100.00
10510;BME280;5303;53.266;10.410;2023-12-14T04:27:59;100990.25;;;3.18;100.00
10510;BME280;5303;53.266;10.410;2023-12-14T04:30:24;100980.72;;;3.18;100.00
10510;BME280;5303;53.266;10.410;2023-12-14T04:32:49;100984.31;;;3.24;100.00
10510;BME280;5303;53.266;10.410;2023-12-14T04:35:15;100999.94;;;3.22;100.00
10510;BME280;5303;53.266;10.410;2023-12-14T04:37:40;100994.03;;;3.28;100.00
10510;BME280;5303;53.266;10.410;2023-12-14T04:40:06;100990.69;;;3.33;100.00
10510;BME280;5303;53.266;10.410;2023-12-14T04:42:32;100994.94;;;3.30;100.00
10510;BME280;5303;53.266;10.410;2023-12-14T04:44:57;101000.91;;;3.26;100.00
10510;BME280;5303;53.266;10.410;2023-12-14T04:47:23;100996.63;;;3.28;100.00
10510;BME280;5303;53.266;10.410;2023-12-14T04:49:49;101002.28;;;3.43;100.00
10510;BME280;5303;53.266;10.410;2023-12-14T04:52:14;101011.41;;;3.27;100.00
10510;BME280;5303;53.266;10.410;2023-12-14T04:54:39;101022.38;;;3.17;100.00
10510;BME280;5303;53.266;10.410;2023-12-14T04:57:05;101019.09;;;3.24;100.00
10510;BME280;5303;53.266;10.410;2023-12-14T04:59:30;101012.16;;;3.25;100.00
10510;BME280;5303;53.266;10.410;2023-12-14T05:01:56;101018.25;;;3.25;100.00
10510;BME280;5303;53.266;10.410;2023-12-14T05:04:21;101020.03;;;3.26;100.00
10510;BME280;5303;53.266;10.410;2023-12-14T05:06:46;101022.28;;;3.14;100.00
10510;BME280;5303;53.266;10.410;2023-12-14T05:09:12;101023.41;;;3.22;100.00
10510;BME280;5303;53.266;10.410;2023-12-14T05:11:39;101019.94;;;3.23;100.00
10510;BME280;5303;53.266;10.410;2023-12-14T05:14:04;101017.16;;;3.17;100.00
10510;BME280;5303;53.266;10.410;2023-12-14T05:16:29;101019.22;;;3.27;100.00
10510;BME280;5303;53.266;10.410;2023-12-14T05:18:55;101022.63;;;3.26;100.00
10510;BME280;5303;53.266;10.410;2023-12-14T05:21:22;101028.69;;;3.25;100.00
10510;BME280;5303;53.266;10.410;2023-12-14T05:23:47;101038.22;;;3.25;100.00
10510;BME280;5303;53.266;10.410;2023-12-14T05:26:13;101047.72;;;3.23;100.00
10510;BME280;5303;53.266;10.410;2023-12-14T05:28:38;101054.59;;;3.19;100.00
10510;BME280;5303;53.266;10.410;2023-12-14T05:31:03;101059.31;;;3.32;100.00
10510;BME280;5303;53.266;10.410;2023-12-14T05:33:29;101056.72;;;3.32;100.00
10510;BME280;5303;53.266;10.410;2023-12-14T05:35:56;101063.53;;;3.27;100.00
10510;BME280;5303;53.266;10.410;2023-12-14T05:38:21;101063.34;;;3.21;100.00
10510;BME280;5303;53.266;10.410;2023-12-14T05:40:46;101077.38;;;3.26;100.00
10510;BME280;5303;53.266;10.410;2023-12-14T05:43:12;101076.41;;;3.23;100.00
10510;BME280;5303;53.266;10.410;2023-12-14T05:45:37;101072.38;;;3.32;100.00
10510;BME280;5303;53.266;10.410;2023-12-14T05:48:02;101081.22;;;3.37;100.00
10510;BME280;5303;53.266;10.410;2023-12-14T05:50:30;101089.22;;;3.43;100.00
10510;BME280;5303;53.266;10.410;2023-12-14T05:52:55;101093.34;;;3.37;100.00
10510;BME280;5303;53.266;10.410;2023-12-14T05:55:21;101092.63;;;3.41;100.00
10510;BME280;5303;53.266;10.410;2023-12-14T05:57:50;101091.25;;;3.25;100.00
10510;BME280;5303;53.266;10.410;2023-12-14T06:00:15;101098.91;;;3.19;100.00
10510;BME280;5303;53.266;10.410;2023-12-14T06:02:41;101102.53;;;3.24;100.00
10510;BME280;5303;53.266;10.410;2023-12-14T06:05:07;101111.06;;;3.18;100.00
10510;BME280;5303;53.266;10.410;2023-12-14T06:07:33;101109.72;;;3.31;100.00
10510;BME280;5303;53.266;10.410;2023-12-14T06:09:58;101114.53;;;3.19;100.00
10510;BME280;5303;53.266;10.410;2023-12-14T06:12:23;101118.22;;;3.26;100.00
10510;BME280;5303;53.266;10.410;2023-12-14T06:14:49;101119.28;;;3.32;100.00
10510;BME280;5303;53.266;10.410;2023-12-14T06:17:15;101124.22;;;3.23;100.00
10510;BME280;5303;53.266;10.410;2023-12-14T06:19:40;101134.72;;;3.26;100.00
10510;BME280;5303;53.266;10.410;2023-12-14T06:22:05;101144.41;;;3.29;100.00
10510;BME280;5303;53.266;10.410;2023-12-14T06:24:31;101144.63;;;3.36;100.00
10510;BME280;5303;53.266;10.410;2023-12-14T06:26:56;101141.13;;;3.36;100.00
10510;BME280;5303;53.266;10.410;2023-12-14T06:29:21;101139.19;;;3.29;100.00
10510;BME280;5303;53.266;10.410;2023-12-14T06:31:46;101153.94;;;3.28;100.00
10510;BME280;5303;53.266;10.410;2023-12-14T06:34:12;101148.81;;;3.31;100.00
10510;BME280;5303;53.266;10.410;2023-12-14T06:36:42;101151.56;;;3.36;100.00
10510;BME280;5303;53.266;10.410;2023-12-14T06:39:07;101143.72;;;3.36;100.00
10510;BME280;5303;53.266;10.410;2023-12-14T06:41:33;101154.25;;;3.37;100.00
10510;BME280;5303;53.266;10.410;2023-12-14T06:43:58;101158.66;;;3.40;100.00
10510;BME280;5303;53.266;10.410;2023-12-14T06:46:23;101174.72;;;3.27;100.00
10510;BME280;5303;53.266;10.410;2023-12-14T06:48:49;101166.44;;;3.38;100.00
10510;BME280;5303;53.266;10.410;2023-12-14T06:51:14;101163.91;;;3.41;100.00
10510;BME280;5303;53.266;10.410;2023-12-14T06:53:42;101166.91;;;3.27;100.00
10510;BME280;5303;53.266;10.410;2023-12-14T06:56:08;101165.25;;;3.29;100.00
10510;BME280;5303;53.266;10.410;2023-12-14T06:58:39;101168.75;;;3.29;100.00
10510;BME280;5303;53.266;10.410;2023-12-14T07:01:04;101164.16;;;3.22;100.00
10510;BME280;5303;53.266;10.410;2023-12-14T07:03:30;101171.31;;;3.28;100.00
10510;BME280;5303;53.266;10.410;2023-12-14T07:05:56;101187.09;;;3.32;100.00
10510;BME280;5303;53.266;10.410;2023-12-14T07:08:22;101186.28;;;3.35;100.00
10510;BME280;5303;53.266;10.410;2023-12-14T07:10:48;101190.63;;;3.34;100.00
10510;BME280;5303;53.266;10.410;2023-12-14T07:13:13;101195.25;;;3.43;100.00
10510;BME280;5303;53.266;10.410;2023-12-14T07:15:38;101192.31;;;3.32;100.00
10510;BME280;5303;53.266;10.410;2023-12-14T07:18:04;101202.72;;;3.32;100.00
10510;BME280;5303;53.266;10.410;2023-12-14T07:20:29;101205.25;;;3.29;100.00
10510;BME280;5303;53.266;10.410;2023-12-14T07:22:54;101206.19;;;3.31;100.00
10510;BME280;5303;53.266;10.410;2023-12-14T07:25:20;101209.97;;;3.41;100.00
10510;BME280;5303;53.266;10.410;2023-12-14T07:27:45;101215.78;;;3.32;100.00
10510;BME280;5303;53.266;10.410;2023-12-14T07:30:12;101213.25;;;3.35;100.00
10510;BME280;5303;53.266;10.410;2023-12-14T07:32:37;101222.13;;;3.40;100.00
10510;BME280;5303;53.266;10.410;2023-12-14T07:35:03;101213.38;;;3.38;100.00
10510;BME280;5303;53.266;10.410;2023-12-14T07:37:28;101222.72;;;3.32;100.00
10510;BME280;5303;53.266;10.410;2023-12-14T07:39:53;101224.56;;;3.36;100.00
10510;BME280;5303;53.266;10.410;2023-12-14T07:42:19;101229.69;;;3.33;100.00
10510;BME280;5303;53.266;10.410;2023-12-14T07:44:47;101239.16;;;3.29;100.00
10510;BME280;5303;53.266;10.410;2023-12-14T07:47:12;101239.31;;;3.35;100.00
10510;BME280;5303;53.266;10.410;2023-12-14T07:49:37;101244.34;;;3.29;100.00
10510;BME280;5303;53.266;10.410;2023-12-14T07:52:03;101250.72;;;3.37;100.00
10510;BME280;5303;53.266;10.410;2023-12-14T07:54:28;101252.22;;;3.31;100.00
10510;BME280;5303;53.266;10.410;2023-12-14T07:56:54;101261.06;;;3.36;100.00
10510;BME280;5303;53.266;10.410;2023-12-14T07:59:19;101263.06;;;3.43;100.00
10510;BME280;5303;53.266;10.410;2023-12-14T08:01:45;101266.50;;;3.42;100.00
10510;BME280;5303;53.266;10.410;2023-12-14T08:04:11;101270.22;;;3.49;100.00
10510;BME280;5303;53.266;10.410;2023-12-14T08:06:36;101282.09;;;3.40;100.00
10510;BME280;5303;53.266;10.410;2023-12-14T08:09:04;101290.34;;;3.53;100.00
10510;BME280;5303;53.266;10.410;2023-12-14T08:11:31;101297.91;;;3.45;100.00
10510;BME280;5303;53.266;10.410;2023-12-14T08:13:56;101306.28;;;3.36;100.00
10510;BME280;5303;53.266;10.410;2023-12-14T08:16:21;101305.66;;;3.43;100.00
10510;BME280;5303;53.266;10.410;2023-12-14T08:18:46;101310.78;;;3.40;100.00
10510;BME280;5303;53.266;10.410;2023-12-14T08:21:13;101317.41;;;3.31;100.00
10510;BME280;5303;53.266;10.410;2023-12-14T08:23:38;101325.38;;;3.35;100.00
10510;BME280;5303;53.266;10.410;2023-12-14T08:26:04;101330.19;;;3.49;100.00
10510;BME280;5303;53.266;10.410;2023-12-14T08:28:29;101324.44;;;3.33;100.00
10510;BME280;5303;53.266;10.410;2023-12-14T08:30:54;101333.34;;;3.38;100.00
10510;BME280;5303;53.266;10.410;2023-12-14T08:33:20;101333.53;;;3.44;100.00
10510;BME280;5303;53.266;10.410;2023-12-14T08:35:46;101344.75;;;3.42;100.00
10510;BME280;5303;53.266;10.410;2023-12-14T08:38:11;101338.59;;;3.40;100.00
10510;BME280;5303;53.266;10.410;2023-12-14T08:40:37;101342.28;;;3.46;100.00
10510;BME280;5303;53.266;10.410;2023-12-14T08:43:02;101346.09;;;3.56;100.00
10510;BME280;5303;53.266;10.410;2023-12-14T08:45:28;101340.03;;;3.57;100.00
10510;BME280;5303;53.266;10.410;2023-12-14T08:47:53;101345.72;;;3.45;100.00
10510;BME280;5303;53.266;10.410;2023-12-14T08:50:19;101344.84;;;3.45;100.00
10510;BME280;5303;53.266;10.410;2023-12-14T08:52:44;101352.84;;;3.50;100.00
10510;BME280;5303;53.266;10.410;2023-12-14T08:55:09;101353.16;;;3.59;100.00
10510;BME280;5303;53.266;10.410;2023-12-14T08:57:35;101362.13;;;3.41;100.00
10510;BME280;5303;53.266;10.410;2023-12-14T09:00:01;101357.56;;;3.61;100.00
10510;BME280;5303;53.266;10.410;2023-12-14T09:02:29;101364.16;;;3.50;100.00
10510;BME280;5303;53.266;10.410;2023-12-14T09:04:54;101365.13;;;3.54;100.00
10510;BME280;5303;53.266;10.410;2023-12-14T09:07:20;101372.03;;;3.52;100.00
10510;BME280;5303;53.266;10.410;2023-12-14T09:09:45;101362.53;;;3.54;100.00
10510;BME280;5303;53.266;10.410;2023-12-14T09:12:10;101364.44;;;3.58;100.00
10510;BME280;5303;53.266;10.410;2023-12-14T09:14:37;101375.78;;;3.60;100.00
10510;BME280;5303;53.266;10.410;2023-12-14T09:17:02;101365.13;;;3.54;100.00
10510;BME280;5303;53.266;10.410;2023-12-14T09:19:29;101370.34;;;3.54;100.00
10510;BME280;5303;53.266;10.410;2023-12-14T09:21:56;101380.44;;;3.68;100.00
10510;BME280;5303;53.266;10.410;2023-12-14T09:24:22;101377.97;;;3.73;100.00
10510;BME280;5303;53.266;10.410;2023-12-14T09:26:47;101384.78;;;3.68;100.00
10510;BME280;5303;53.266;10.410;2023-12-14T09:29:12;101392.59;;;3.68;100.00
10510;BME280;5303;53.266;10.410;2023-12-14T09:31:41;101397.56;;;3.60;100.00
10510;BME280;5303;53.266;10.410;2023-12-14T09:34:06;101397.88;;;3.69;100.00
10510;BME280;5303;53.266;10.410;2023-12-14T09:36:32;101406.59;;;3.70;100.00
10510;BME280;5303;53.266;10.410;2023-12-14T09:38:57;101414.34;;;3.68;100.00
10510;BME280;5303;53.266;10.410;2023-12-14T09:41:22;101415.03;;;3.63;100.00
10510;BME280;5303;53.266;10.410;2023-12-14T09:43:48;101418.69;;;3.68;100.00
10510;BME280;5303;53.266;10.410;2023-12-14T09:46:14;101422.00;;;3.64;100.00
10510;BME280;5303;53.266;10.410;2023-12-14T09:48:42;101431.84;;;3.71;100.00
10510;BME280;5303;53.266;10.410;2023-12-14T09:51:08;101436.34;;;3.76;100.00
10510;BME280;5303;53.266;10.410;2023-12-14T09:53:33;101434.44;;;3.71;100.00
10510;BME280;5303;53.266;10.410;2023-12-14T09:55:58;101432.25;;;3.83;100.00
10510;BME280;5303;53.266;10.410;2023-12-14T09:58:24;101444.69;;;3.66;100.00
10510;BME280;5303;53.266;10.410;2023-12-14T10:00:50;101435.16;;;3.67;100.00
10510;BME280;5303;53.266;10.410;2023-12-14T10:03:25;101440.63;;;3.74;100.00
10510;BME280;5303;53.266;10.410;2023-12-14T10:05:53;101451.88;;;3.72;100.00
10510;BME280;5303;53.266;10.410;2023-12-14T10:08:19;101445.59;;;3.67;100.00
10510;BME280;5303;53.266;10.410;2023-12-14T10:10:45;101443.09;;;3.70;100.00
10510;BME280;5303;53.266;10.410;2023-12-14T10:13:11;101439.84;;;3.77;100.00
10510;BME280;5303;53.266;10.410;2023-12-14T10:15:44;101440.88;;;3.81;100.00
10510;BME280;5303;53.266;10.410;2023-12-14T10:18:10;101439.09;;;3.80;100.00
10510;BME280;5303;53.266;10.410;2023-12-14T10:20:36;101455.78;;;3.85;100.00
10510;BME280;5303;53.266;10.410;2023-12-14T10:23:06;101455.78;;;3.85;100.00
10510;BME280;5303;53.266;10.410;2023-12-14T10:25:32;101456.66;;;3.85;100.00
10510;BME280;5303;53.266;10.410;2023-12-14T10:27:58;101466.91;;;3.79;100.00
10510;BME280;5303;53.266;10.410;2023-12-14T10:30:25;101467.84;;;3.81;100.00
10510;BME280;5303;53.266;10.410;2023-12-14T10:32:50;101463.66;;;3.86;100.00
10510;BME280;5303;53.266;10.410;2023-12-14T10:35:16;101462.22;;;3.94;100.00
10510;BME280;5303;53.266;10.410;2023-12-14T10:37:42;101474.31;;;3.92;100.00
10510;BME280;5303;53.266;10.410;2023-12-14T10:40:11;101474.84;;;3.82;100.00
10510;BME280;5303;53.266;10.410;2023-12-14T10:42:40;101473.22;;;3.86;100.00
10510;BME280;5303;53.266;10.410;2023-12-14T10:45:08;101483.84;;;3.90;100.00
10510;BME280;5303;53.266;10.410;2023-12-14T10:47:35;101489.25;;;3.96;100.00
10510;BME280;5303;53.266;10.410;2023-12-14T10:50:00;101488.31;;;3.94;100.00
10510;BME280;5303;53.266;10.410;2023-12-14T10:52:27;101487.69;;;4.01;100.00
10510;BME280;5303;53.266;10.410;2023-12-14T10:54:58;101494.47;;;3.96;100.00
10510;BME280;5303;53.266;10.410;2023-12-14T10:57:24;101499.91;;;4.02;100.00
10510;BME280;5303;53.266;10.410;2023-12-14T10:59:49;101499.81;;;3.99;100.00
10510;BME280;5303;53.266;10.410;2023-12-14T11:02:15;101504.06;;;3.97;100.00
10510;BME280;5303;53.266;10.410;2023-12-14T11:05:02;101510.06;;;3.95;100.00
10510;BME280;5303;53.266;10.410;2023-12-14T11:08:09;101503.97;;;3.94;100.00
10510;BME280;5303;53.266;10.410;2023-12-14T11:10:41;101509.75;;;4.10;100.00
10510;BME280;5303;53.266;10.410;2023-12-14T11:13:10;101515.41;;;3.98;100.00
10510;BME280;5303;53.266;10.410;2023-12-14T11:15:37;101516.41;;;4.01;100.00
10510;BME280;5303;53.266;10.410;2023-12-14T11:20:48;101526.81;;;4.00;100.00
10510;BME280;5303;53.266;10.410;2023-12-14T11:23:15;101530.31;;;4.00;100.00
10510;BME280;5303;53.266;10.410;2023-12-14T11:25:43;101532.06;;;4.01;100.00
10510;BME280;5303;53.266;10.410;2023-12-14T11:28:08;101535.38;;;3.97;100.00
10510;BME280;5303;53.266;10.410;2023-12-14T11:30:37;101548.66;;;4.03;100.00
10510;BME280;5303;53.266;10.410;2023-12-14T11:33:03;101545.72;;;3.94;100.00
10510;BME280;5303;53.266;10.410;2023-12-14T11:35:29;101553.47;;;3.91;100.00
10510;BME280;5303;53.266;10.410;2023-12-14T11:37:55;101549.69;;;3.83;100.00
10510;BME280;5303;53.266;10.410;2023-12-14T11:40:23;101555.25;;;3.92;100.00
10510;BME280;5303;53.266;10.410;2023-12-14T11:43:01;101552.56;;;3.91;100.00
10510;BME280;5303;53.266;10.410;2023-12-14T11:45:32;101556.91;;;3.90;100.00
10510;BME280;5303;53.266;10.410;2023-12-14T11:47:57;101546.84;;;4.01;100.00
10510;BME280;5303;53.266;10.410;2023-12-14T11:50:22;101549.28;;;3.96;100.00
10510;BME280;5303;53.266;10.410;2023-12-14T11:52:49;101554.72;;;4.02;100.00
10510;BME280;5303;53.266;10.410;2023-12-14T11:55:14;101560.16;;;4.09;100.00
10510;BME280;5303;53.266;10.410;2023-12-14T11:57:46;101560.00;;;4.04;100.00
10510;BME280;5303;53.266;10.410;2023-12-14T12:00:12;101559.13;;;4.03;100.00
10510;BME280;5303;53.266;10.410;2023-12-14T12:02:38;101569.56;;;4.03;100.00
10510;BME280;5303;53.266;10.410;2023-12-14T12:05:06;101570.50;;;4.05;100.00
10510;BME280;5303;53.266;10.410;2023-12-14T12:07:31;101568.63;;;4.01;100.00
10510;BME280;5303;53.266;10.410;2023-12-14T12:09:56;101574.88;;;4.07;100.00
10510;BME280;5303;53.266;10.410;2023-12-14T12:12:22;101574.03;;;4.08;100.00
10510;BME280;5303;53.266;10.410;2023-12-14T12:14:47;101570.59;;;4.09;100.00
10510;BME280;5303;53.266;10.410;2023-12-14T12:17:14;101575.00;;;4.10;100.00
10510;BME280;5303;53.266;10.410;2023-12-14T12:19:40;101582.09;;;4.14;100.00
10510;BME280;5303;53.266;10.410;2023-12-14T12:22:07;101579.16;;;4.04;100.00
10510;BME280;5303;53.266;10.410;2023-12-14T12:24:33;101585.38;;;4.08;100.00
10510;BME280;5303;53.266;10.410;2023-12-14T12:26:58;101586.06;;;4.02;100.00
10510;BME280;5303;53.266;10.410;2023-12-14T12:29:23;101578.50;;;4.10;100.00
10510;BME280;5303;53.266;10.410;2023-12-14T12:31:49;101596.84;;;4.12;100.00
10510;BME280;5303;53.266;10.410;2023-12-14T12:34:14;101585.50;;;4.11;100.00
10510;BME280;5303;53.266;10.410;2023-12-14T12:36:40;101586.59;;;3.94;100.00
10510;BME280;5303;53.266;10.410;2023-12-14T12:39:05;101584.47;;;4.08;100.00
10510;BME280;5303;53.266;10.410;2023-12-14T12:41:32;101588.34;;;3.93;100.00
10510;BME280;5303;53.266;10.410;2023-12-14T12:43:58;101597.59;;;3.85;100.00
10510;BME280;5303;53.266;10.410;2023-12-14T12:46:24;101596.16;;;3.93;100.00